KRBG/RBG METAR and TAF weather

Enter ICAO airport designator
Station Type Date Time Source
KRBG METAR 2020/10/22 03:53 UTC NOAA

KRBG 220353Z AUTO 35007KT 10SM CLR 12/04 A3021 RMK AO2 SLP230 T01220044 $


Station Type Date Time Source
KRBG Decoded METAR 2020/10/22 03:53 UTC NOAA

ROSEBURG REGIONAL AIRPORT, OR, United States (KRBG) 43-14N 123-21W 154M
Oct 21, 2020 - 11:53 PM EDT / 2020.10.22 0353 UTC
Wind: from the N (350 degrees) at 8 MPH (7 KT):0
Visibility: 10 mile(s):0
Sky conditions: clear
Temperature: 54.0 F (12.2 C)
Dew Point: 39.9 F (4.4 C)
Relative Humidity: 58%
Pressure (altimeter): 30.21 in. Hg (1023 hPa)
ob: KRBG 220353Z AUTO 35007KT 10SM CLR 12/04 A3021 RMK AO2 SLP230 T01220044
cycle: 4

Station Type Date Time Source
KRBG TAF 2020/10/21 18:57 UTC NOAA

TAF KRBG 211755Z 2118/2218 36007KT P6SM FEW022
FM212000 36010G18KT P6SM SKC
FM220400 36005KT P6SM SCT250

Example: see airport list